A- A+ FrançaisEnglishEspañol中国

le plus proche LFBT Tarbes-Lourdes-PyrénéesLFTH Hyeres-Le-Palyvestre LFBZ Biarritz-Bayonne-Anglet LFBD Bordeaux-Merignac

manche à air

La météo aéronautique pour les pilotes, la préparation du vol avec les METAR (METeorological Aerodrome Report, message d'observation des conditions météorologiques pour l'aviation) et Les TAF (Terminal Aerodrome Forecast : message de prévision à court terme des conditions météorologiques pour l'aviation). Et les autres ressources comme les VAC (Visual Approch Chart) et les NOTAM (Notice To Airman) pour préprer les vols.

Aéroport Woodvale (Royaume-Uni) / OACI EGOW

L'altitude de l'aéroport Woodvale est de 11 m=36 ft. Il est situé à proximité de Southport (Royaume-Uni). La météo générale à 5 jours est disponible pour Formby situé à 3.3 km.

METAR de l'aéroport Woodvale - EGOW

EGOW 041520Z 27023G38KT 9999 SCT025 15/11 Q1010 RMK WHT

Décodage du METAR de l'aéroport Woodvale (GB)

METAR émis par EGOW le mercredi 4 septembre 2019 à 15:20 heure TU. Attention ce METAR est obsolète car il a été émis il y a 9 heure et 41 minutes.

La visibilité est de supérieure à 10 km=supérieure à 6.2 sm.

La température est de 15°C=59 °F et le point rosée est de 11°C=52 °F . Ce qui correspond à 77% d'humidité relative.

Le QNH est de 1010 hPa=29.83 inHg

Vent de 23 kt=43 km/h avec des rafales à 38 kt =70 km/h, orienté à 270°.

Nuages : Nuages épars à 2500 ft=760 mètres.

RMK WHT

TAF de l'aéroport Woodvale - EGOW

EGOW 040659Z 0407/0415 28016G26KT 9999 FEW020CB PROB40 TEMPO 0407/0411 SCT022 BECMG 0409/0412 26025G38KT TEMPO 0411/0415 -SHRA BKN022 PROB40 TEMPO 0411/0415 7000 SHRA

EGOW 040659Z 0407/0415 28016G26KT 9999 quelques nuages à 020CB probabilité de 40% d'avoir temporairement 0407/0411 nuages épars à 022 devenant 0409/0412 26025G38KT temporairement 0411/0415 faible SHRA couverture nuageuse fragmentée à 022 probabilité de 40% d'avoir temporairement 0411/0415 7000 SHRA

Aéroport à proximité de Woodvale

Météo générale à 5 jours à Formby (3.3 km)EGNH Aéroport Blackpool (21 km)EGNO Aéroport Warton (21 km)EGGP Aéroport Liverpool (31 km)EGNR Aéroport Hawarden (45 km)EGCB Aéroport Manchester Barton (46 km)EGCC Aéroport Manchester (58 km)

Vue aérienne de l'aéroport Woodvale

NOTAM de l'aéroport Woodvale

Les NOTAM sont fournis sans aucune garantie de leur actualité. Le pilote est le seul responsable de la vérification de sa validité avant de l'utiliser opérationnellement pour préparer un vol ou l'utiliser lors de sa navigation.

Pas de NOTAM

Sources des données